< Typhoon 202120 2021 Season Typhoon 202122 >
Typhoon 202121 (NYATOH)
General InformationTrack Information on Google MapsDetailed Wind InformationForecast History on Google MapsAccess Analytics MapList of All Images || NewsDisaster Info.WeblogTrackbackTyphoon FrontTwiphoonTyphoon Now!Typhoon ImaginationJMA Disaster Info. XMLResourceGoogle EarthGE AnimationAtom FeedGeoJSON
Detalied Best Track (Time Zone = UTC)
Year Month Day Hour Lat. Long. Pressure (hPa) Wind (kt) Class Image Chart
2021 11 29 12 11.8 141.1 1004 30 2 Image Chart
2021 11 29 15 12.4 140.5 1004 30 2 Image Chart
2021 11 29 18 12.4 140.4 1002 30 2 Image Chart
2021 11 29 21 12.8 140.1 1002 30 2 Image Chart
2021 11 30 00 13.0 139.8 1000 35 3 Image Chart
2021 11 30 03 13.1 139.3 1000 35 3 Image Chart
2021 11 30 06 13.1 138.4 998 35 3 Image Chart
2021 11 30 09 12.9 137.5 998 35 3 Image Chart
2021 11 30 12 13.1 137.2 996 40 3 Image Chart
2021 11 30 15 13.2 136.7 996 40 3 Image Chart
2021 11 30 18 13.6 136.6 992 45 3 Image Chart
2021 11 30 21 14.1 136.4 992 45 3 Image Chart
2021 12 1 00 14.1 136.2 990 50 4 Image Chart
2021 12 1 03 14.2 135.9 990 50 4 Image Chart
2021 12 1 06 14.3 135.7 985 55 4 Image Chart
2021 12 1 09 14.6 135.7 985 55 4 Image Chart
2021 12 1 12 14.8 135.6 985 55 4 Image Chart
2021 12 1 15 15.2 135.6 985 55 4 Image Chart
2021 12 1 18 15.8 135.5 975 65 5 Image Chart
2021 12 1 21 16.2 135.4 975 65 5 Image Chart
2021 12 2 00 16.5 135.5 970 70 5 Image Chart
2021 12 2 03 16.9 135.6 970 70 5 Image Chart
2021 12 2 06 17.5 135.8 965 75 5 Image Chart
2021 12 2 09 17.8 136.1 965 75 5 Image Chart
2021 12 2 12 18.2 136.7 955 80 5 Image Chart
2021 12 2 15 18.9 137.0 955 80 5 Image Chart
2021 12 2 18 19.5 137.4 950 85 5 Image Chart
2021 12 2 21 20.2 138.0 950 85 5 Image Chart
2021 12 3 00 20.9 138.7 925 100 5 Image Chart
2021 12 3 03 21.7 139.7 925 100 5 Image Chart
2021 12 3 06 22.5 140.5 925 100 5 Image Chart
2021 12 3 09 23.1 141.3 935 95 5 Image Chart
2021 12 3 12 24.0 142.3 950 85 5 Image Chart
2021 12 3 15 24.7 143.0 950 85 5 Image Chart
2021 12 3 18 25.6 144.1 965 75 5 Image Chart
2021 12 3 21 26.3 144.9 975 65 5 Image Chart
2021 12 4 00 28.3 146.3 994 45 3 Image Chart
2021 12 4 03 28.9 147.3 1000 35 3 Image Chart
2021 12 4 06 29.0 148.0 1006 0 2 Image Chart
Japan Meteorological Agency Best Track Data | Correction Date : 2021-12-04
< Typhoon 202120 2021 Season Typhoon 202122 >

Help